createdAt,value
2022-07-28T00:00:29.882Z,99182.56
2022-07-28T00:02:56.725Z,99138.47
2022-07-28T00:05:23.552Z,99166.06
2022-07-28T00:07:50.333Z,99150.16
2022-07-28T00:10:18.165Z,99166.91
2022-07-28T00:12:45.184Z,99171.78
2022-07-28T00:15:12.333Z,99171.13
2022-07-28T00:17:39.761Z,99162.47
2022-07-28T00:20:08.443Z,99170.25
2022-07-28T00:22:35.194Z,99181.38
2022-07-28T00:25:01.981Z,99150.84
2022-07-28T00:27:28.753Z,99153.41
2022-07-28T00:29:55.571Z,99167.94
2022-07-28T00:32:22.412Z,99164.03
2022-07-28T00:34:53.650Z,99167.88
2022-07-28T00:37:20.630Z,99168.25
2022-07-28T00:39:47.374Z,99155.94
2022-07-28T00:42:18.673Z,99162.88
2022-07-28T00:44:45.461Z,99163.53
2022-07-28T00:47:12.429Z,99175.06
2022-07-28T00:49:39.843Z,99171.75
2022-07-28T00:52:08.784Z,99165.91
2022-07-28T00:54:36.270Z,99143.31
2022-07-28T00:57:03.341Z,99166.59
2022-07-28T00:59:30.899Z,99171.00
2022-07-28T01:02:02.196Z,99179.78
2022-07-28T01:04:29.943Z,99154.34
2022-07-28T01:07:03.152Z,99179.66
2022-07-28T01:09:45.462Z,99175.88
2022-07-28T01:12:30.350Z,99178.38
2022-07-28T01:15:19.571Z,99178.59
2022-07-28T01:18:05.174Z,99163.50
2022-07-28T01:21:03.764Z,99170.09
2022-07-28T01:23:33.447Z,99178.69
2022-07-28T01:26:18.540Z,99173.13
2022-07-28T01:29:43.188Z,99173.63
2022-07-28T01:32:19.144Z,99175.81
2022-07-28T01:34:52.590Z,99172.94
2022-07-28T01:37:26.092Z,99177.69
2022-07-28T01:40:00.423Z,99168.25
2022-07-28T01:42:33.580Z,99175.97
2022-07-28T01:45:02.436Z,99178.19
2022-07-28T01:47:30.265Z,99179.41
2022-07-28T01:50:02.732Z,99114.50
2022-07-28T01:52:31.705Z,99164.25
2022-07-28T01:55:28.688Z,99174.03
2022-07-28T01:57:56.894Z,99167.28
2022-07-28T02:00:26.198Z,99128.69
2022-07-28T02:02:56.101Z,99153.63
2022-07-28T02:05:24.696Z,99157.19
2022-07-28T02:07:53.522Z,99173.22
2022-07-28T02:10:21.730Z,99140.97
2022-07-28T02:12:50.670Z,99160.91
2022-07-28T02:15:19.415Z,99161.72
2022-07-28T02:17:47.763Z,99158.00
2022-07-28T02:20:16.542Z,99105.59
2022-07-28T02:22:45.580Z,99115.03
2022-07-28T02:25:19.304Z,99108.13
2022-07-28T02:28:09.003Z,99133.25
2022-07-28T02:30:47.214Z,99134.59
2022-07-28T02:33:25.388Z,99122.09
2022-07-28T02:36:14.223Z,99133.53
2022-07-28T02:38:47.122Z,99133.19
2022-07-28T02:41:22.771Z,99140.63
2022-07-28T02:43:52.808Z,99118.41
2022-07-28T02:46:24.249Z,99148.75
2022-07-28T02:48:57.048Z,99137.28
2022-07-28T02:51:27.053Z,99148.75
2022-07-28T02:53:54.094Z,99154.16
2022-07-28T02:56:22.810Z,99143.38
2022-07-28T02:58:51.993Z,99139.31
2022-07-28T03:01:19.781Z,99146.75
2022-07-28T03:03:48.293Z,99142.88
2022-07-28T03:06:18.332Z,99140.66
2022-07-28T03:08:45.261Z,99150.78
2022-07-28T03:11:14.107Z,99131.91
2022-07-28T03:13:41.111Z,99149.63
2022-07-28T03:16:08.542Z,99146.75
2022-07-28T03:18:35.432Z,99143.06
2022-07-28T03:21:02.239Z,99122.31
2022-07-28T03:23:35.090Z,99159.72
2022-07-28T03:26:09.630Z,99161.56
2022-07-28T03:28:38.043Z,99146.44
2022-07-28T03:31:09.626Z,99118.94
2022-07-28T03:33:37.132Z,99158.06
2022-07-28T03:36:09.380Z,99173.75
2022-07-28T03:38:41.320Z,99170.53
2022-07-28T03:41:10.344Z,99174.91
2022-07-28T03:43:38.170Z,99146.75
2022-07-28T03:46:08.602Z,99178.28
2022-07-28T03:48:37.975Z,99183.34
2022-07-28T03:51:04.810Z,99155.34
2022-07-28T03:53:31.580Z,99175.75
2022-07-28T03:55:58.532Z,99197.84
2022-07-28T03:58:29.016Z,99197.00
2022-07-28T04:00:56.856Z,99198.88
2022-07-28T04:03:42.785Z,99204.44
2022-07-28T04:06:10.939Z,99200.06
2022-07-28T04:08:37.691Z,99202.41
2022-07-28T04:11:04.568Z,99205.59
2022-07-28T04:13:32.334Z,99204.75
2022-07-28T04:16:00.424Z,99208.81
2022-07-28T04:18:27.321Z,99198.69
2022-07-28T04:20:54.134Z,99197.50
2022-07-28T04:23:21.071Z,99184.34
2022-07-28T04:25:48.493Z,99198.38
2022-07-28T04:28:16.046Z,99203.91
2022-07-28T04:30:44.085Z,99210.81
2022-07-28T04:33:11.321Z,99208.44
2022-07-28T04:35:38.174Z,99159.22
2022-07-28T04:38:04.982Z,99190.41
2022-07-28T04:40:31.799Z,99184.66
2022-07-28T04:42:58.501Z,99162.94
2022-07-28T04:45:25.322Z,99185.88
2022-07-28T04:47:53.401Z,99185.03
2022-07-28T04:50:21.627Z,99188.72
2022-07-28T04:52:49.993Z,99186.88
2022-07-28T04:55:17.722Z,99156.31
2022-07-28T04:57:45.024Z,99199.97
2022-07-28T05:00:14.398Z,99196.09
2022-07-28T05:02:43.026Z,99186.13
2022-07-28T05:05:10.589Z,99201.22
2022-07-28T05:07:38.740Z,99195.13
2022-07-28T05:10:07.205Z,99211.16
2022-07-28T05:12:34.065Z,99205.75
2022-07-28T05:15:01.049Z,99197.78
2022-07-28T05:17:27.971Z,99186.91
2022-07-28T05:19:54.828Z,99187.22
2022-07-28T05:22:21.577Z,99195.00
2022-07-28T05:24:48.321Z,99194.44
2022-07-28T05:27:15.071Z,99200.28
2022-07-28T05:29:47.830Z,99156.22
2022-07-28T05:32:17.407Z,99182.16
2022-07-28T05:34:45.660Z,99193.03
2022-07-28T05:37:12.540Z,99200.06
2022-07-28T05:39:39.633Z,99203.94
2022-07-28T05:42:06.574Z,99170.66
2022-07-28T05:44:37.970Z,99190.94
2022-07-28T05:47:05.904Z,99180.03
2022-07-28T05:49:32.809Z,99201.19
2022-07-28T05:51:59.693Z,99174.63
2022-07-28T05:54:26.465Z,99194.22
2022-07-28T05:56:53.219Z,99159.34
2022-07-28T05:59:20.136Z,99202.09
2022-07-28T06:01:47.030Z,99202.53
2022-07-28T06:04:27.112Z,99209.47
2022-07-28T06:06:55.362Z,99198.03
2022-07-28T06:09:22.086Z,99212.22
2022-07-28T06:11:51.004Z,99176.59
2022-07-28T06:14:18.791Z,99211.16
2022-07-28T06:16:51.449Z,99217.47
2022-07-28T06:19:19.364Z,99207.16
2022-07-28T06:21:46.131Z,99219.97
2022-07-28T06:24:13.171Z,99213.75
2022-07-28T06:26:44.359Z,99210.66
2022-07-28T06:29:12.155Z,99179.66
2022-07-28T06:31:41.149Z,99133.09
2022-07-28T06:34:08.205Z,99206.03
2022-07-28T06:36:35.078Z,99164.50
2022-07-28T06:39:02.564Z,99196.19
2022-07-28T06:41:29.583Z,99186.94
2022-07-28T06:44:02.719Z,99143.19
2022-07-28T06:46:29.802Z,99160.84
2022-07-28T06:49:00.219Z,99175.53
2022-07-28T06:51:27.349Z,99198.47
2022-07-28T06:53:56.025Z,99148.88
2022-07-28T06:56:23.573Z,99187.31
2022-07-28T06:58:50.528Z,99149.16
2022-07-28T07:03:54.878Z,99184.41
2022-07-28T07:06:21.734Z,99189.63
2022-07-28T07:08:48.916Z,99173.22
2022-07-28T07:11:15.765Z,99176.78
2022-07-28T07:13:42.640Z,99170.63
2022-07-28T07:16:09.590Z,99166.00
2022-07-28T07:18:36.421Z,99162.53
2022-07-28T07:21:03.493Z,99160.00
2022-07-28T07:23:30.349Z,99166.13
2022-07-28T07:25:57.421Z,99151.94
2022-07-28T07:28:24.646Z,99147.44
2022-07-28T07:30:51.466Z,99136.94
2022-07-28T07:33:18.405Z,99149.88
2022-07-28T07:35:45.223Z,99135.34
2022-07-28T07:38:12.332Z,99143.63
2022-07-28T07:40:39.259Z,99139.81
2022-07-28T07:43:06.251Z,99117.88
2022-07-28T07:45:34.552Z,99147.22
2022-07-28T07:48:03.160Z,99132.44
2022-07-28T07:50:30.411Z,99131.44
2022-07-28T07:52:57.193Z,99129.69
2022-07-28T07:55:24.076Z,99114.63
2022-07-28T07:57:50.934Z,99125.66
2022-07-28T08:00:28.659Z,99132.53
2022-07-28T08:02:57.421Z,99122.97
2022-07-28T08:05:34.869Z,99109.94
2022-07-28T08:08:05.224Z,99105.06
2022-07-28T08:10:33.012Z,99116.47
2022-07-28T08:12:59.744Z,99122.09
2022-07-28T08:15:26.590Z,99121.94
2022-07-28T08:17:53.459Z,99116.91
2022-07-28T08:20:20.350Z,99112.91
2022-07-28T08:22:57.231Z,99112.47
2022-07-28T08:25:25.189Z,99125.44
2022-07-28T08:27:51.973Z,99106.69
2022-07-28T08:30:23.706Z,99101.41
2022-07-28T08:32:57.086Z,99097.53
2022-07-28T08:35:35.041Z,99103.03
2022-07-28T08:38:06.565Z,99109.72
2022-07-28T08:40:35.354Z,99105.78
2022-07-28T08:43:30.742Z,99109.34
2022-07-28T08:45:59.852Z,99107.56
2022-07-28T08:48:30.449Z,99093.31
2022-07-28T08:51:10.521Z,99088.69
2022-07-28T08:53:40.094Z,99086.78
2022-07-28T08:56:08.649Z,99078.09
2022-07-28T08:58:37.081Z,99087.75
2022-07-28T09:01:07.738Z,99086.53
2022-07-28T09:03:36.314Z,99090.06
2022-07-28T09:06:03.335Z,99080.34
2022-07-28T09:08:30.174Z,99071.19
2022-07-28T09:10:57.129Z,99059.06
2022-07-28T09:13:24.192Z,99074.38
2022-07-28T09:15:51.210Z,99061.69
2022-07-28T09:18:18.739Z,99073.38
2022-07-28T09:20:45.883Z,99075.19
2022-07-28T09:23:43.401Z,99069.44
2022-07-28T09:26:11.745Z,99071.97
2022-07-28T09:28:51.384Z,99064.03
2022-07-28T09:31:19.526Z,99056.44
2022-07-28T09:33:55.053Z,99059.53
2022-07-28T09:36:22.374Z,99041.69
2022-07-28T09:38:49.320Z,99053.75
2022-07-28T09:41:19.077Z,99021.56
2022-07-28T09:43:49.762Z,99038.59
2022-07-28T09:46:24.593Z,99044.44
2022-07-28T09:48:54.624Z,99040.47
2022-07-28T09:51:28.627Z,99009.09
2022-07-28T09:54:08.805Z,99014.41
2022-07-28T09:56:35.991Z,99011.81
2022-07-28T09:59:03.884Z,99026.88
2022-07-28T10:01:37.078Z,99003.00
2022-07-28T10:04:04.623Z,98993.38
2022-07-28T10:06:33.787Z,98992.53
2022-07-28T10:09:03.604Z,98985.25
2022-07-28T10:11:31.129Z,99001.91
2022-07-28T10:14:05.728Z,98994.72
2022-07-28T10:16:35.150Z,98986.56
2022-07-28T10:19:04.999Z,98974.53
2022-07-28T10:21:34.678Z,98996.63
2022-07-28T10:24:18.248Z,98985.59
2022-07-28T10:26:47.167Z,98981.25
2022-07-28T10:29:16.991Z,98970.16
2022-07-28T10:31:53.283Z,98980.03
2022-07-28T10:34:31.705Z,98987.00
2022-07-28T10:37:02.625Z,98975.78
2022-07-28T10:39:36.169Z,98969.34
2022-07-28T10:42:03.824Z,98967.50
2022-07-28T10:44:31.853Z,98975.06
2022-07-28T10:46:59.149Z,98955.56
2022-07-28T10:49:32.703Z,98965.03
2022-07-28T10:52:06.311Z,98959.97
2022-07-28T10:55:20.453Z,98954.75
2022-07-28T10:58:19.513Z,98940.94
2022-07-28T11:01:02.140Z,98955.00
2022-07-28T11:03:47.476Z,98960.03
2022-07-28T11:06:31.241Z,98948.41
2022-07-28T11:09:17.995Z,98949.53
2022-07-28T11:11:59.851Z,98940.38
2022-07-28T11:14:27.041Z,98942.38
2022-07-28T11:17:00.644Z,98947.56
2022-07-28T11:22:34.758Z,98919.97
2022-07-28T11:25:20.797Z,98935.41
2022-07-28T11:27:50.023Z,98927.97
2022-07-28T11:30:22.850Z,98932.94
2022-07-28T11:32:53.553Z,98933.50
2022-07-28T11:35:27.954Z,98927.16
2022-07-28T11:38:01.124Z,98921.31
2022-07-28T11:40:31.281Z,98922.13
2022-07-28T11:43:36.414Z,98923.28
2022-07-28T11:46:07.665Z,98933.22
2022-07-28T11:48:47.538Z,98910.81
2022-07-28T11:51:16.132Z,98921.84
2022-07-28T11:53:47.115Z,98924.34
2022-07-28T11:56:29.489Z,98902.50
2022-07-28T11:59:01.842Z,98880.91
2022-07-28T12:01:31.812Z,98901.66
2022-07-28T12:04:00.702Z,98882.88
2022-07-28T12:06:49.401Z,98922.16
2022-07-28T12:09:25.116Z,98914.41
2022-07-28T12:11:55.527Z,98905.25
2022-07-28T12:14:29.226Z,98910.28
2022-07-28T12:16:56.984Z,98893.63
2022-07-28T12:19:24.359Z,98880.69
2022-07-28T12:22:00.228Z,98904.22
2022-07-28T12:24:29.641Z,98900.00
2022-07-28T12:26:57.955Z,98891.41
2022-07-28T12:29:24.909Z,98903.34
2022-07-28T12:32:04.991Z,98892.56
2022-07-28T12:34:40.079Z,98895.38
2022-07-28T12:37:12.558Z,98899.19
2022-07-28T12:39:42.827Z,98896.69
2022-07-28T12:42:11.692Z,98890.59
2022-07-28T12:44:43.445Z,98884.53
2022-07-28T12:47:12.730Z,98892.53
2022-07-28T12:49:42.347Z,98883.19
2022-07-28T12:52:15.273Z,98875.41
2022-07-28T12:54:42.251Z,98877.91
2022-07-28T12:57:48.761Z,98867.13
2022-07-28T13:00:19.662Z,98868.78
2022-07-28T13:02:47.727Z,98858.47
2022-07-28T13:05:58.425Z,98853.00
2022-07-28T13:08:27.571Z,98841.03
2022-07-28T13:10:58.700Z,98846.16
2022-07-28T13:13:27.052Z,98809.09
2022-07-28T13:16:14.756Z,98835.72
2022-07-28T13:18:43.914Z,98825.84
2022-07-28T13:21:11.394Z,98837.97
2022-07-28T13:23:38.782Z,98838.16
2022-07-28T13:26:07.494Z,98816.69
2022-07-28T13:28:35.445Z,98835.75
2022-07-28T13:31:02.370Z,98817.19
2022-07-28T13:33:29.377Z,98830.38
2022-07-28T13:35:56.197Z,98823.63
2022-07-28T13:38:23.434Z,98830.38
2022-07-28T13:40:50.272Z,98819.94
2022-07-28T13:43:16.993Z,98816.66
2022-07-28T13:45:44.073Z,98819.78
2022-07-28T13:48:11.061Z,98826.09
2022-07-28T13:50:37.973Z,98823.22
2022-07-28T13:53:04.755Z,98816.19
2022-07-28T13:55:31.607Z,98806.34
2022-07-28T13:57:58.420Z,98805.06
2022-07-28T14:00:26.216Z,98807.72
2022-07-28T14:02:53.670Z,98792.59
2022-07-28T14:05:21.245Z,98803.66
2022-07-28T14:07:49.369Z,98798.84
2022-07-28T14:10:18.251Z,98803.38
2022-07-28T14:12:46.566Z,98808.69
2022-07-28T14:15:13.699Z,98803.81
2022-07-28T14:17:44.873Z,98792.75
2022-07-28T14:20:14.493Z,98781.16
2022-07-28T14:22:42.129Z,98804.34
2022-07-28T14:25:09.552Z,98781.28
2022-07-28T14:27:36.575Z,98784.84
2022-07-28T14:30:05.159Z,98788.44
2022-07-28T14:32:33.060Z,98799.78
2022-07-28T14:35:02.099Z,98780.53
2022-07-28T14:37:36.305Z,98784.25
2022-07-28T14:40:14.986Z,98778.69
2022-07-28T14:42:41.810Z,98776.25
2022-07-28T14:45:09.063Z,98783.19
2022-07-28T14:47:44.560Z,98782.00
2022-07-28T14:50:13.003Z,98771.81
2022-07-28T14:52:44.805Z,98764.31
2022-07-28T14:55:12.355Z,98776.19
2022-07-28T14:57:45.900Z,98750.97
2022-07-28T15:00:17.153Z,98756.78
2022-07-28T15:02:45.726Z,98762.81
2022-07-28T15:05:12.651Z,98764.44
2022-07-28T15:07:39.864Z,98774.84
2022-07-28T15:10:13.782Z,98767.31
2022-07-28T15:12:40.620Z,98761.13
2022-07-28T15:15:08.109Z,98765.13
2022-07-28T15:17:37.670Z,98726.41
2022-07-28T15:20:07.314Z,98733.06
2022-07-28T15:22:34.886Z,98756.03
2022-07-28T15:25:01.872Z,98748.28
2022-07-28T15:27:33.212Z,98747.28
2022-07-28T15:30:02.621Z,98743.41
2022-07-28T15:32:31.493Z,98742.78
2022-07-28T15:34:58.489Z,98738.53
2022-07-28T15:37:25.206Z,98737.81
2022-07-28T15:39:51.952Z,98716.06
2022-07-28T15:42:18.864Z,98745.38
2022-07-28T15:44:45.630Z,98747.09
2022-07-28T15:47:12.419Z,98751.78
2022-07-28T15:49:39.235Z,98743.78
2022-07-28T15:52:06.272Z,98749.03
2022-07-28T15:54:33.068Z,98737.91
2022-07-28T15:56:59.930Z,98742.94
2022-07-28T15:59:49.865Z,98738.97
2022-07-28T16:02:17.486Z,98744.66
2022-07-28T16:04:53.235Z,98709.56
2022-07-28T16:07:28.133Z,98742.44
2022-07-28T16:09:55.791Z,98732.25
2022-07-28T16:12:25.483Z,98717.06
2022-07-28T16:14:54.201Z,98693.31
2022-07-28T16:17:26.459Z,98707.13
2022-07-28T16:19:54.185Z,98735.84
2022-07-28T16:22:21.289Z,98733.09
2022-07-28T16:24:48.687Z,98740.28
2022-07-28T16:27:15.550Z,98732.25
2022-07-28T16:29:43.532Z,98712.09
2022-07-28T16:32:10.510Z,98682.25
2022-07-28T16:34:37.417Z,98716.81
2022-07-28T16:37:05.062Z,98714.03
2022-07-28T16:39:33.937Z,98712.09
2022-07-28T16:42:01.511Z,98708.50
2022-07-28T16:44:28.807Z,98718.72
2022-07-28T16:46:55.888Z,98710.44
2022-07-28T16:49:23.064Z,98701.59
2022-07-28T16:51:50.315Z,98707.66
2022-07-28T16:54:17.709Z,98711.25
2022-07-28T16:56:45.322Z,98714.81
2022-07-28T16:59:12.033Z,98673.09
2022-07-28T17:01:42.223Z,98699.06
2022-07-28T17:04:13.005Z,98703.75
2022-07-28T17:06:40.103Z,98673.59
2022-07-28T17:09:07.196Z,98685.19
2022-07-28T17:11:33.966Z,98679.09
2022-07-28T17:14:01.033Z,98704.78
2022-07-28T17:16:28.299Z,98709.47
2022-07-28T17:18:55.445Z,98713.28
2022-07-28T17:21:22.566Z,98649.69
2022-07-28T17:23:49.450Z,98681.75
2022-07-28T17:27:19.393Z,98679.50
2022-07-28T17:29:03.054Z,98697.38
2022-07-28T17:31:33.701Z,98670.28
2022-07-28T17:34:01.110Z,98687.41
2022-07-28T17:36:28.154Z,98658.56
2022-07-28T17:38:54.942Z,98703.34
2022-07-28T17:41:22.021Z,98646.66
2022-07-28T17:43:48.785Z,98722.06
2022-07-28T17:46:15.650Z,98709.53
2022-07-28T17:48:42.680Z,98670.47
2022-07-28T17:51:09.667Z,98706.41
2022-07-28T17:53:39.362Z,98673.66
2022-07-28T17:56:07.010Z,98717.88
2022-07-28T17:58:35.997Z,98713.91
2022-07-28T18:01:14.032Z,98696.97
2022-07-28T18:03:59.468Z,98714.41
2022-07-28T18:06:28.692Z,98725.63
2022-07-28T18:09:06.392Z,98730.50
2022-07-28T18:11:57.245Z,98694.69
2022-07-28T18:14:29.897Z,98730.91
2022-07-28T18:16:59.692Z,98724.94
2022-07-28T18:19:35.235Z,98739.25
2022-07-28T18:22:04.179Z,98665.53
2022-07-28T18:25:06.002Z,98740.81
2022-07-28T18:27:33.470Z,98721.00
2022-07-28T18:30:02.960Z,98746.19
2022-07-28T18:32:44.555Z,98718.19
2022-07-28T18:35:15.829Z,98754.91
2022-07-28T18:37:45.945Z,98672.41
2022-07-28T18:40:15.389Z,98725.31
2022-07-28T18:42:43.325Z,98750.72
2022-07-28T18:45:14.883Z,98678.34
2022-07-28T18:47:46.471Z,98722.06
2022-07-28T18:50:30.361Z,98749.41
2022-07-28T18:52:59.595Z,98749.41
2022-07-28T18:55:28.213Z,98760.75
2022-07-28T18:57:56.235Z,98746.56
2022-07-28T19:00:24.247Z,98766.97
2022-07-28T19:02:52.472Z,98761.72
2022-07-28T19:05:36.724Z,98773.28
2022-07-28T19:08:06.875Z,98709.91
2022-07-28T19:10:33.816Z,98778.44
2022-07-28T19:13:00.881Z,98780.44
2022-07-28T19:15:28.192Z,98776.53
2022-07-28T19:18:10.254Z,98753.28
2022-07-28T19:20:46.611Z,98792.84
2022-07-28T19:23:13.436Z,98792.44
2022-07-28T19:25:40.281Z,98797.09
2022-07-28T19:28:07.493Z,98811.75
2022-07-28T19:30:35.150Z,98795.69
2022-07-28T19:33:03.322Z,98822.78
2022-07-28T19:35:30.442Z,98808.75
2022-07-28T19:38:00.111Z,98825.97
2022-07-28T19:40:31.986Z,98814.22
2022-07-28T19:42:59.667Z,98818.25
2022-07-28T19:45:26.723Z,98814.31
2022-07-28T19:47:54.814Z,98818.63
2022-07-28T19:50:21.877Z,98821.56
2022-07-28T19:52:49.058Z,98819.59
2022-07-28T19:55:17.613Z,98832.13
2022-07-28T19:57:47.995Z,98788.75
2022-07-28T20:00:19.423Z,98824.56
2022-07-28T20:02:46.771Z,98823.25
2022-07-28T20:05:13.610Z,98831.47
2022-07-28T20:07:40.532Z,98831.13
2022-07-28T20:10:07.506Z,98837.59
2022-07-28T20:12:36.821Z,98843.81
2022-07-28T20:15:07.386Z,98836.94
2022-07-28T20:17:39.491Z,98823.53
2022-07-28T20:20:12.879Z,98827.56
2022-07-28T20:22:41.360Z,98824.72
2022-07-28T20:25:10.050Z,98810.59
2022-07-28T20:27:39.949Z,98815.59
2022-07-28T20:30:12.552Z,98811.53
2022-07-28T20:32:40.313Z,98795.22
2022-07-28T20:35:08.819Z,98821.16
2022-07-28T20:37:37.690Z,98820.97
2022-07-28T20:40:06.807Z,98830.16
2022-07-28T20:42:33.937Z,98812.03
2022-07-28T20:45:01.403Z,98816.56
2022-07-28T20:47:28.750Z,98824.22
2022-07-28T20:49:55.728Z,98791.72
2022-07-28T20:52:23.714Z,98831.72
2022-07-28T20:54:54.259Z,98797.56
2022-07-28T20:57:22.615Z,98832.53
2022-07-28T20:59:51.570Z,98828.59
2022-07-28T21:02:20.563Z,98816.69
2022-07-28T21:04:50.351Z,98835.75
2022-07-28T21:07:59.969Z,98820.75
2022-07-28T21:10:07.627Z,98830.03
2022-07-28T21:12:38.855Z,98825.41
2022-07-28T21:15:06.672Z,98815.56
2022-07-28T21:17:33.590Z,98814.72
2022-07-28T21:20:00.594Z,98827.31
2022-07-28T21:22:27.474Z,98825.69
2022-07-28T21:24:55.508Z,98832.31
2022-07-28T21:27:23.143Z,98799.00
2022-07-28T21:32:17.987Z,98822.34
2022-07-28T21:34:44.932Z,98823.28
2022-07-28T21:37:14.267Z,98829.47
2022-07-28T21:39:41.181Z,98827.69
2022-07-28T21:42:09.077Z,98836.03
2022-07-28T21:44:37.222Z,98842.22
2022-07-28T21:47:05.722Z,98838.53
2022-07-28T21:49:32.678Z,98842.47
2022-07-28T21:52:00.670Z,98822.59
2022-07-28T21:54:28.019Z,98840.31
2022-07-28T21:56:54.851Z,98828.50
2022-07-28T21:59:21.910Z,98828.13
2022-07-28T22:01:51.943Z,98841.72
2022-07-28T22:04:19.618Z,98842.41
2022-07-28T22:06:46.961Z,98815.50
2022-07-28T22:11:41.913Z,98841.91
2022-07-28T22:14:08.841Z,98809.38
2022-07-28T22:16:35.782Z,98833.19
2022-07-28T22:19:03.235Z,98855.88
2022-07-28T22:21:30.504Z,98857.53
2022-07-28T22:23:57.301Z,98862.63
2022-07-28T22:26:24.080Z,98851.13
2022-07-28T22:28:50.813Z,98847.97
2022-07-28T22:31:17.707Z,98851.91
2022-07-28T22:33:44.632Z,98834.59
2022-07-28T22:36:11.581Z,98812.50
2022-07-28T22:38:38.453Z,98852.91
2022-07-28T22:41:05.595Z,98852.81
2022-07-28T22:43:33.778Z,98855.81
2022-07-28T22:46:00.834Z,98856.91
2022-07-28T22:48:27.953Z,98856.34
2022-07-28T22:50:54.873Z,98834.75
2022-07-28T22:53:21.652Z,98794.72
2022-07-28T22:55:48.444Z,98849.28
2022-07-28T22:58:15.267Z,98848.28
2022-07-28T23:06:12.312Z,98819.03
2022-07-28T23:08:39.186Z,98855.91
2022-07-28T23:11:06.234Z,98835.25
2022-07-28T23:13:33.071Z,98852.13
2022-07-28T23:15:59.947Z,98868.63
2022-07-28T23:18:26.786Z,98869.28
2022-07-28T23:20:53.614Z,98879.53
2022-07-28T23:23:21.373Z,98871.50
2022-07-28T23:25:48.108Z,98882.16
2022-07-28T23:28:14.927Z,98875.97
2022-07-28T23:30:41.742Z,98875.81
2022-07-28T23:33:08.625Z,98886.19
2022-07-28T23:35:42.882Z,98849.88
2022-07-28T23:38:09.732Z,98884.41
2022-07-28T23:40:36.644Z,98860.31
2022-07-28T23:43:03.579Z,98882.97
2022-07-28T23:45:30.356Z,98886.28
2022-07-28T23:47:58.983Z,98843.19
2022-07-28T23:50:26.742Z,98840.13
2022-07-28T23:52:53.536Z,98876.06
2022-07-28T23:55:20.427Z,98870.44
2022-07-28T23:57:47.236Z,98879.63
